Time;durP1;ratioP1;P1;durP2;ratioP2;P2;SDS_P1;SDS_P2;PMS_P1;PMS_P2;Temp;Humidity;BMP_temperature;BMP_pressure;BME280_temperature;BME280_humidity;BME280_pressure;Samples;Min_cycle;Max_cycle;Signal;HPM_P1;HPM_P2
2022/08/12 00:44:21;;;;;;;6.47;2.25;;;;;;;15.11;100.00;101825.50;5045677;28;20502;-73
2022/08/12 00:46:51;;;;;;;3.20;2.15;;;;;;;15.08;100.00;101823.16;5039836;28;20037;-73
2022/08/12 00:49:17;;;;;;;4.28;1.90;;;;;;;15.10;100.00;101817.56;5043755;28;20485;-73
2022/08/12 00:54:30;;;;;;;3.53;2.33;;;;;;;15.07;100.00;101818.75;5027333;28;20150;-74
2022/08/12 00:56:57;;;;;;;3.25;2.22;;;;;;;15.08;100.00;101823.16;5027354;28;20017;-74
2022/08/12 00:59:23;;;;;;;2.40;1.98;;;;;;;15.08;100.00;101825.00;5044792;28;20056;-73
2022/08/12 01:01:51;;;;;;;5.68;2.30;;;;;;;15.04;100.00;101819.09;5045029;28;20528;-74
2022/08/12 01:12:37;;;;;;;4.05;1.85;;;;;;;15.06;100.00;101817.09;5041076;28;20067;-74
2022/08/12 01:15:03;;;;;;;6.85;2.40;;;;;;;15.04;100.00;101813.72;5016144;28;20021;-74
2022/08/12 01:17:29;;;;;;;4.40;2.53;;;;;;;15.08;100.00;101814.25;5007994;28;20038;-74
2022/08/12 01:19:58;;;;;;;3.67;1.85;;;;;;;15.10;100.00;101810.38;5022586;28;20021;-74
2022/08/12 01:22:33;;;;;;;5.07;2.40;;;;;;;15.13;100.00;101818.09;5040064;28;20112;-74
2022/08/12 01:25:06;;;;;;;3.10;2.10;;;;;;;15.13;100.00;101814.59;5051202;28;20040;-73
2022/08/12 01:27:33;;;;;;;3.63;2.17;;;;;;;15.09;100.00;101813.22;5046932;28;20394;-72
2022/08/12 01:30:01;;;;;;;2.72;2.00;;;;;;;15.03;100.00;101808.50;5031293;28;20348;-73
2022/08/12 01:32:29;;;;;;;4.43;2.22;;;;;;;15.02;100.00;101814.91;5038073;28;20037;-73
2022/08/12 01:35:22;;;;;;;6.72;2.40;;;;;;;15.01;100.00;101806.00;5045440;28;20024;-73
2022/08/12 01:37:50;;;;;;;5.40;2.55;;;;;;;14.99;100.00;101816.06;5024872;28;20037;-73
2022/08/12 01:40:18;;;;;;;4.18;2.33;;;;;;;15.02;100.00;101806.81;5034920;28;20078;-72
2022/08/12 01:42:49;;;;;;;4.63;1.80;;;;;;;15.02;100.00;101810.34;5045160;28;20044;-73
2022/08/12 01:45:16;;;;;;;2.63;2.10;;;;;;;14.98;100.00;101803.63;5044894;28;20033;-73
2022/08/12 01:47:44;;;;;;;4.45;2.35;;;;;;;15.03;100.00;101806.69;5045089;28;20033;-73
2022/08/12 01:50:35;;;;;;;4.10;2.00;;;;;;;15.01;100.00;101806.00;5026651;28;20032;-73
2022/08/12 01:53:14;;;;;;;2.47;1.88;;;;;;;14.95;100.00;101793.19;5026988;28;20562;-73
2022/08/12 01:55:46;;;;;;;9.15;2.22;;;;;;;14.90;100.00;101803.63;5036698;28;20043;-72
2022/08/12 01:59:45;;;;;;;4.50;2.30;;;;;;;14.86;100.00;101788.81;5019179;28;20048;-73
2022/08/12 02:01:21;;;;;;;4.43;2.30;;;;;;;14.80;100.00;101782.25;5044257;28;20033;-74
2022/08/12 02:12:57;;;;;;;2.72;2.40;;;;;;;14.62;100.00;101793.13;5036645;28;20033;-73
2022/08/12 02:15:40;;;;;;;3.60;2.17;;;;;;;14.58;100.00;101802.50;5009883;28;20033;-73
2022/08/12 02:18:30;;;;;;;3.17;2.50;;;;;;;14.51;100.00;101798.75;5044449;28;20035;-74
2022/08/12 02:21:05;;;;;;;4.63;2.40;;;;;;;14.45;100.00;101797.59;5032729;28;20041;-73
2022/08/12 02:23:33;;;;;;;8.13;2.08;;;;;;;14.41;100.00;101801.59;5033000;28;20493;-72
2022/08/12 02:26:06;;;;;;;5.47;2.65;;;;;;;14.35;100.00;101800.41;5040599;28;20450;-73
2022/08/12 02:28:32;;;;;;;4.32;2.65;;;;;;;14.32;100.00;101799.88;5044682;28;20044;-74
2022/08/12 02:31:03;;;;;;;6.60;2.58;;;;;;;14.26;100.00;101798.69;5019244;28;20032;-73
2022/08/12 02:33:31;;;;;;;6.88;2.78;;;;;;;14.22;100.00;101807.22;5017722;28;20041;-74
2022/08/12 02:35:58;;;;;;;3.97;2.42;;;;;;;14.19;100.00;101810.22;5018602;28;20017;-73
2022/08/12 02:38:25;;;;;;;4.65;3.13;;;;;;;14.13;100.00;101799.09;5039243;28;20037;-73
2022/08/12 02:40:53;;;;;;;4.50;3.08;;;;;;;14.08;100.00;101798.75;5030043;28;20056;-72
2022/08/12 02:43:47;;;;;;;4.30;2.45;;;;;;;14.07;100.00;101797.09;5030287;28;20541;-74
2022/08/12 02:46:17;;;;;;;6.78;3.70;;;;;;;14.05;100.00;101800.94;5047639;28;20035;-74
2022/08/12 02:48:59;;;;;;;4.93;2.85;;;;;;;14.01;100.00;101795.03;5042876;28;20045;-74
2022/08/12 02:51:30;;;;;;;5.75;2.58;;;;;;;14.03;100.00;101797.56;5039058;28;20037;-74
2022/08/12 02:53:58;;;;;;;5.85;2.70;;;;;;;14.01;100.00;101807.63;5039779;28;20025;-73
2022/08/12 02:56:27;;;;;;;6.20;2.90;;;;;;;13.98;100.00;101799.84;5039626;28;20025;-73
2022/08/12 02:58:53;;;;;;;6.57;2.95;;;;;;;13.97;100.00;101800.88;5029832;28;20531;-73
2022/08/12 03:01:23;;;;;;;6.07;2.63;;;;;;;13.94;100.00;101797.50;5029617;28;20398;-74
2022/08/12 03:03:51;;;;;;;4.80;2.90;;;;;;;13.94;100.00;101792.13;5047652;28;20371;-73
2022/08/12 03:06:20;;;;;;;4.05;2.58;;;;;;;13.94;100.00;101792.13;5047570;28;20028;-73
2022/08/12 03:08:47;;;;;;;3.67;2.42;;;;;;;13.88;100.00;101790.09;5029749;28;20033;-73
2022/08/12 03:11:22;;;;;;;4.22;2.47;;;;;;;13.89;100.00;101788.25;5047343;28;20028;-73
2022/08/12 03:13:54;;;;;;;3.22;2.53;;;;;;;13.83;100.00;101781.66;5047613;28;20029;-73
2022/08/12 03:16:20;;;;;;;4.45;2.88;;;;;;;13.83;100.00;101778.97;5039403;28;20036;-73
2022/08/12 03:18:47;;;;;;;3.35;2.85;;;;;;;13.80;100.00;101778.47;5039394;28;20020;-72
2022/08/12 03:21:15;;;;;;;4.90;2.78;;;;;;;13.87;100.00;101798.31;5020857;28;20068;-74
2022/08/12 03:23:44;;;;;;;6.93;3.13;;;;;;;13.79;100.00;101807.16;5047450;28;20021;-72
2022/08/12 03:26:10;;;;;;;2.55;2.20;;;;;;;13.61;100.00;101798.31;5038914;28;20017;-73
2022/08/12 03:28:52;;;;;;;4.75;2.58;;;;;;;13.55;100.00;101788.19;5042818;28;20877;-73
2022/08/12 03:31:28;;;;;;;4.65;2.88;;;;;;;13.54;100.00;101795.41;5019567;28;20080;-73
2022/08/12 03:33:59;;;;;;;4.93;3.13;;;;;;;13.51;100.00;101780.47;5047156;28;20029;-73
2022/08/12 03:36:26;;;;;;;5.85;2.70;;;;;;;13.57;100.00;101784.34;5046752;28;20405;-73
2022/08/12 03:39:20;;;;;;;3.40;2.47;;;;;;;13.52;100.00;101784.81;5038847;28;20037;-73
2022/08/12 03:42:00;;;;;;;5.05;2.63;;;;;;;13.52;100.00;101784.81;5022807;28;20040;-73
2022/08/12 04:01:24;;;;;;;7.00;3.22;;;;;;;13.37;100.00;101806.97;5046166;28;20581;-72
2022/08/12 04:03:51;;;;;;;6.75;3.38;;;;;;;13.37;100.00;101805.16;5022448;28;20029;-73
2022/08/12 04:06:21;;;;;;;4.45;3.35;;;;;;;13.39;100.00;101803.19;5044732;28;20061;-72
2022/08/12 04:08:50;;;;;;;4.15;2.60;;;;;;;13.38;100.00;101800.63;5046639;28;20029;-73
2022/08/12 04:14:19;;;;;;;5.20;2.40;;;;;;;13.38;100.00;101792.59;5028118;28;20068;-73
2022/08/12 04:16:49;;;;;;;3.40;2.90;;;;;;;13.44;100.00;101795.50;5020648;28;20048;-73
2022/08/12 04:19:16;;;;;;;4.75;2.60;;;;;;;13.43;100.00;101804.53;5024557;28;20044;-73
2022/08/12 04:21:42;;;;;;;5.32;2.78;;;;;;;13.48;100.00;101794.16;5037978;28;20025;-73
2022/08/12 04:24:09;;;;;;;8.13;2.67;;;;;;;13.50;100.00;101797.53;5012035;28;20025;-73
2022/08/12 04:26:35;;;;;;;3.33;2.90;;;;;;;13.61;100.00;101800.97;5046074;28;20056;-73
2022/08/12 04:29:00;;;;;;;5.07;2.83;;;;;;;13.65;100.00;101805.03;5020732;28;20060;-73
2022/08/12 04:31:41;;;;;;;5.45;2.50;;;;;;;13.63;100.00;101802.50;5037310;28;20033;-72
2022/08/12 04:34:08;;;;;;;2.90;2.22;;;;;;;13.70;100.00;101800.03;5020128;28;20048;-73
2022/08/12 04:36:36;;;;;;;4.88;2.45;;;;;;;13.83;100.00;101791.56;5046136;28;20025;-73
2022/08/12 04:39:03;;;;;;;3.45;2.60;;;;;;;13.94;100.00;101791.28;5037798;28;20136;-72
2022/08/12 04:41:29;;;;;;;2.70;2.35;;;;;;;13.99;100.00;101790.81;5011977;28;20504;-72
2022/08/12 04:43:54;;;;;;;6.30;2.42;;;;;;;14.09;100.00;101784.34;5013023;28;20040;-73
2022/08/12 04:46:20;;;;;;;4.27;2.30;;;;;;;14.13;100.00;101792.91;5026764;28;20315;-73
2022/08/12 04:48:46;;;;;;;4.15;3.20;;;;;;;14.27;100.00;101794.97;5045689;28;20045;-72
2022/08/12 04:51:12;;;;;;;4.73;2.90;;;;;;;14.36;100.00;101790.50;5019594;28;20028;-73
2022/08/12 04:53:39;;;;;;;3.33;2.65;;;;;;;14.55;100.00;101802.84;5036880;28;20028;-73
2022/08/12 04:56:05;;;;;;;4.82;2.70;;;;;;;14.72;100.00;101809.94;5045110;28;20039;-73
2022/08/12 04:58:32;;;;;;;5.13;3.17;;;;;;;14.93;100.00;101816.72;5024136;28;20033;-72
2022/08/12 05:00:58;;;;;;;5.80;2.90;;;;;;;15.20;100.00;101824.50;5040245;28;20559;-73
2022/08/12 05:03:25;;;;;;;3.17;2.35;;;;;;;15.47;100.00;101844.00;5037406;28;20041;-73
2022/08/12 05:05:51;;;;;;;3.00;2.70;;;;;;;15.62;100.00;101823.50;5039326;28;20031;-73
2022/08/12 05:08:17;;;;;;;4.72;3.17;;;;;;;15.88;100.00;101824.34;5035947;28;20048;-73
2022/08/12 05:10:45;;;;;;;3.97;2.37;;;;;;;16.19;100.00;101802.88;5019136;28;20032;-73
2022/08/12 05:13:21;;;;;;;4.00;2.60;;;;;;;16.73;100.00;101789.47;5036499;28;20044;-73
2022/08/12 05:15:47;;;;;;;2.92;2.00;;;;;;;17.54;100.00;101762.91;5033462;28;20034;-74
2022/08/12 05:18:14;;;;;;;3.13;1.80;;;;;;;18.86;100.00;101737.81;5017128;28;20021;-73
2022/08/12 05:20:42;;;;;;;2.58;1.98;;;;;;;19.94;100.00;101639.00;5019033;28;20425;-74
2022/08/12 05:23:12;;;;;;;4.53;2.10;;;;;;;20.94;100.00;101519.78;5027177;28;20059;-74
2022/08/12 05:25:39;;;;;;;4.43;1.83;;;;;;;21.78;100.00;101392.97;5033625;28;20025;-74
2022/08/12 05:28:05;;;;;;;2.85;2.00;;;;;;;22.18;100.00;101293.91;5033851;28;20619;-74
2022/08/12 05:30:32;;;;;;;3.38;1.80;;;;;;;22.44;100.00;101213.91;5033152;28;20084;-74
2022/08/12 05:32:58;;;;;;;2.35;1.80;;;;;;;22.63;100.00;101199.19;5015227;28;20100;-74
2022/08/12 05:35:24;;;;;;;2.25;1.67;;;;;;;22.67;95.79;101110.56;5041291;28;20579;-74
2022/08/12 05:40:35;;;;;;;4.37;2.00;;;;;;;23.80;85.91;101154.06;5032759;28;20568;-74
2022/08/12 05:43:00;;;;;;;3.05;2.13;;;;;;;24.01;79.91;101071.59;5033492;28;20017;-74
2022/08/12 05:45:26;;;;;;;5.22;2.03;;;;;;;24.19;77.02;101088.84;5036342;28;20112;-74
2022/08/12 05:47:51;;;;;;;4.30;1.70;;;;;;;24.67;74.71;101139.38;5038526;28;20475;-74
2022/08/12 05:50:17;;;;;;;2.17;1.70;;;;;;;25.01;71.56;101103.88;5034637;28;20291;-74
2022/08/12 05:52:42;;;;;;;6.38;1.33;;;;;;;25.51;68.73;101121.28;5036626;28;20294;-74
2022/08/12 05:55:09;;;;;;;3.05;1.83;;;;;;;25.79;66.43;101103.88;5036082;28;20032;-74
2022/08/12 05:57:34;;;;;;;4.05;1.80;;;;;;;25.93;65.15;101120.75;5015625;28;20018;-74
2022/08/12 06:00:00;;;;;;;3.97;1.90;;;;;;;24.98;66.58;101063.41;5032980;28;20032;-74
2022/08/12 06:02:25;;;;;;;2.80;1.77;;;;;;;25.61;65.95;101154.22;5018655;28;20117;-74
2022/08/12 06:04:52;;;;;;;3.78;1.88;;;;;;;25.81;65.20;101170.06;5036551;28;20041;-72
2022/08/12 06:07:17;;;;;;;3.42;1.88;;;;;;;25.54;66.87;101244.59;5017698;28;20153;-72
2022/08/12 06:09:43;;;;;;;9.63;1.75;;;;;;;25.65;67.39;101292.06;5036718;28;20537;-71
2022/08/12 06:12:08;;;;;;;6.97;2.10;;;;;;;25.75;66.62;101285.91;5037725;28;20033;-72
2022/08/12 06:14:37;;;;;;;4.25;1.70;;;;;;;24.89;67.43;101182.31;5022952;28;20159;-72
2022/08/12 06:17:04;;;;;;;2.92;2.03;;;;;;;25.27;69.63;101372.91;5040603;28;20033;-72
2022/08/12 06:19:30;;;;;;;4.28;2.47;;;;;;;25.64;68.02;101359.59;5032051;28;20067;-72
2022/08/12 06:21:56;;;;;;;2.55;2.20;;;;;;;25.12;67.68;101245.00;5040391;28;20063;-73
2022/08/12 06:24:24;;;;;;;3.03;1.92;;;;;;;24.23;70.85;101238.16;5040161;28;20544;-72
2022/08/12 06:26:50;;;;;;;4.13;2.33;;;;;;;24.89;74.98;101505.44;5040085;28;20032;-73
2022/08/12 06:29:18;;;;;;;2.75;1.65;;;;;;;24.26;76.62;101438.72;5040017;28;20038;-72
2022/08/12 06:31:49;;;;;;;4.78;2.10;;;;;;;24.65;77.42;101512.78;5022092;28;20082;-72
2022/08/12 06:34:16;;;;;;;3.92;1.92;;;;;;;24.82;77.28;101524.66;5038591;28;20086;-72
2022/08/12 06:36:42;;;;;;;4.22;2.63;;;;;;;24.62;77.85;101496.88;5036545;28;20021;-72
2022/08/12 06:39:07;;;;;;;5.53;2.17;;;;;;;24.96;81.95;101663.69;5036744;28;20383;-72
2022/08/12 06:44:19;;;;;;;6.53;2.00;;;;;;;24.41;79.14;101485.47;5038043;28;20283;-73
2022/08/12 06:46:46;;;;;;;2.45;2.08;;;;;;;23.74;85.16;101540.25;5042143;28;20074;-72
2022/08/12 06:49:12;;;;;;;;;;;;;;;24.74;80.67;101571.44;5038904;28;20071;-73
2022/08/12 06:51:38;;;;;;;6.22;2.42;;;;;;;24.15;82.52;101527.66;5036170;28;19909;-72
2022/08/12 06:54:04;;;;;;;;;;;;;;;24.04;85.80;101585.75;5036600;28;20025;-72
2022/08/12 06:56:29;;;;;;;10.15;2.30;;;;;;;23.99;84.79;101566.53;5036230;28;20282;-72
2022/08/12 06:58:56;;;;;;;3.47;2.17;;;;;;;24.44;85.06;101642.44;5018083;28;20029;-72
2022/08/12 07:01:23;;;;;;;11.77;2.33;;;;;;;24.71;80.43;101563.72;5037449;28;20021;-73
2022/08/12 07:03:50;;;;;;;3.35;2.00;;;;;;;25.09;78.25;101562.38;5037625;28;20067;-73
2022/08/12 07:06:15;;;;;;;8.07;2.17;;;;;;;24.84;76.76;101487.03;5015824;28;20028;-72
2022/08/12 07:08:42;;;;;;;4.03;2.67;;;;;;;24.59;75.37;101399.09;5040146;28;20033;-72
2022/08/12 07:11:12;;;;;;;3.65;2.55;;;;;;;24.06;80.19;101482.69;5037775;28;20017;-73
2022/08/12 07:13:43;;;;;;;6.65;2.08;;;;;;;24.14;82.91;101583.31;5017760;28;20025;-72
2022/08/12 07:16:14;;;;;;;10.88;2.40;;;;;;;24.29;78.92;101509.19;5018668;28;20101;-72
2022/08/12 07:18:41;;;;;;;5.80;2.22;;;;;;;24.63;75.88;101483.00;5038241;28;20078;-72
2022/08/12 07:21:08;;;;;;;3.92;2.42;;;;;;;25.02;76.05;101550.75;5038463;28;20467;-72
2022/08/12 07:23:37;;;;;;;5.72;2.47;;;;;;;24.63;74.22;101427.56;5035771;28;20033;-73
2022/08/12 07:26:06;;;;;;;5.10;2.28;;;;;;;25.13;72.79;101487.06;5017514;28;20045;-72
2022/08/12 07:28:34;;;;;;;4.90;2.40;;;;;;;25.37;71.83;101492.50;5035737;28;20398;-73
2022/08/12 07:31:06;;;;;;;3.30;1.80;;;;;;;25.77;69.54;101477.94;5041351;28;20017;-72
2022/08/12 07:33:32;;;;;;;3.30;2.30;;;;;;;26.13;68.23;101489.50;5020742;28;20500;-73
2022/08/12 07:36:01;;;;;;;7.97;3.22;;;;;;;25.37;68.93;101400.41;5013843;28;20013;-73
2022/08/12 07:38:30;;;;;;;7.72;2.22;;;;;;;25.19;70.33;101434.25;5046842;28;20028;-73
2022/08/12 07:40:57;;;;;;;7.57;2.28;;;;;;;25.74;67.62;101431.94;5038841;28;20036;-73
2022/08/12 07:43:23;;;;;;;6.95;2.55;;;;;;;25.36;69.56;101431.56;5038100;28;20520;-73
2022/08/12 07:45:52;;;;;;;5.55;2.10;;;;;;;26.10;67.63;101469.78;5040677;28;20067;-73
2022/08/12 07:48:17;;;;;;;6.38;2.30;;;;;;;25.58;67.27;101371.53;5043411;28;20051;-73
2022/08/12 07:50:42;;;;;;;2.33;2.07;;;;;;;25.79;67.68;101445.69;5034911;28;20029;-73
2022/08/12 07:53:08;;;;;;;3.20;1.97;;;;;;;25.45;66.04;101307.09;5043981;28;20283;-73
2022/08/12 07:55:35;;;;;;;4.30;2.20;;;;;;;25.72;66.83;101414.94;5019790;28;20282;-73
2022/08/12 07:58:01;;;;;;;7.07;2.25;;;;;;;25.59;66.15;101343.13;5038471;28;20405;-73
2022/08/12 08:00:30;;;;;;;6.47;2.50;;;;;;;24.96;68.39;101355.06;5037892;28;20030;-73
2022/08/12 08:02:57;;;;;;;5.97;1.70;;;;;;;24.75;69.03;101337.47;5020731;28;20729;-73
2022/08/12 08:05:25;;;;;;;3.88;1.90;;;;;;;25.61;69.60;101521.38;5017546;28;20394;-73
2022/08/12 08:07:52;;;;;;;2.10;1.70;;;;;;;25.76;65.55;101388.78;5034882;28;20386;-73
2022/08/12 08:10:19;;;;;;;5.10;2.00;;;;;;;26.16;64.07;101387.78;5024824;28;20017;-73
2022/08/12 08:12:53;;;;;;;6.78;2.03;;;;;;;25.31;64.46;101264.75;5017068;28;20049;-73
2022/08/12 08:15:25;;;;;;;4.38;2.03;;;;;;;25.23;64.90;101287.84;5010894;28;20087;-73
2022/08/12 08:18:01;;;;;;;3.45;2.13;;;;;;;25.16;66.32;101343.69;5020350;28;20021;-73
2022/08/12 08:20:32;;;;;;;5.88;2.50;;;;;;;25.87;65.20;101410.59;5034362;28;20090;-73
2022/08/12 08:23:00;;;;;;;5.45;2.15;;;;;;;26.99;61.78;101442.59;5016864;28;20083;-73
2022/08/12 08:25:30;;;;;;;4.53;2.42;;;;;;;27.67;57.53;101293.03;5037020;28;20031;-73
2022/08/12 08:27:58;;;;;;;6.78;2.20;;;;;;;27.36;56.77;101182.31;5037730;28;20912;-74
2022/08/12 08:30:23;;;;;;;8.18;2.17;;;;;;;26.23;56.41;100953.31;5034245;28;20064;-73
2022/08/12 08:32:49;;;;;;;7.93;2.53;;;;;;;26.70;60.01;101328.56;5034506;28;20056;-74
2022/08/12 08:35:21;;;;;;;2.75;1.88;;;;;;;26.99;58.26;101251.59;5036420;28;20451;-74
2022/08/12 08:37:47;;;;;;;3.33;2.13;;;;;;;27.76;56.77;101335.34;5019995;28;20378;-73
2022/08/12 08:42:56;;;;;;;5.15;2.00;;;;;;;28.35;54.39;101245.66;5032504;28;20075;-74
2022/08/12 08:45:22;;;;;;;4.65;2.15;;;;;;;28.69;53.33;101196.59;5036577;28;20108;-74
2022/08/12 08:47:48;;;;;;;5.47;2.20;;;;;;;27.63;55.08;101132.00;5013874;28;20048;-74
2022/08/12 08:50:15;;;;;;;2.88;1.83;;;;;;;28.31;56.00;101343.41;5043243;28;20029;-73
2022/08/12 08:52:44;;;;;;;6.28;2.42;;;;;;;29.00;53.34;101241.41;5037267;28;20911;-74
2022/08/12 08:55:12;;;;;;;4.47;2.20;;;;;;;29.10;52.44;101220.56;5036508;28;20747;-74
2022/08/12 08:57:43;;;;;;;5.15;2.40;;;;;;;29.38;51.49;101216.41;5038561;28;20024;-74
2022/08/12 09:00:18;;;;;;;15.85;2.50;;;;;;;30.01;49.23;101117.72;5030484;28;20061;-74
2022/08/12 09:02:48;;;;;;;5.95;2.50;;;;;;;29.91;48.35;100998.63;5037163;28;20112;-74
2022/08/12 09:05:16;;;;;;;3.25;2.22;;;;;;;30.54;47.65;101070.28;5017795;28;20127;-74
2022/08/12 09:07:46;;;;;;;5.78;2.72;;;;;;;30.25;46.58;100904.97;5033787;28;20025;-74
2022/08/12 09:10:15;;;;;;;3.08;1.85;;;;;;;29.85;47.74;100913.34;5033622;28;20036;-74
2022/08/12 09:15:26;;;;;;;6.35;1.80;;;;;;;30.51;45.80;100916.59;5044800;28;20048;-74
2022/08/12 09:17:56;;;;;;;5.60;2.20;;;;;;;30.56;45.96;100921.25;5007717;28;20027;-74
2022/08/12 09:20:24;;;;;;;3.40;2.30;;;;;;;30.63;45.73;100894.97;5017484;28;20425;-74
2022/08/12 09:22:50;;;;;;;2.85;1.95;;;;;;;29.98;45.64;100810.00;5036459;28;20318;-75
2022/08/12 09:25:17;;;;;;;;;;;;;;;30.41;45.79;100889.97;5008485;28;20545;-74
2022/08/12 09:27:43;;;;;;;2.50;1.95;;;;;;;30.82;44.77;100883.16;5015319;28;19917;-74
2022/08/12 09:30:14;;;;;;;7.53;2.33;;;;;;;30.83;44.34;100832.44;5041772;28;20047;-74
2022/08/12 09:32:41;;;;;;;6.30;2.25;;;;;;;31.16;44.12;100873.91;5040313;28;20030;-74
2022/08/12 09:35:07;;;;;;;2.03;1.90;;;;;;;31.03;43.11;100724.66;5033837;28;20043;-74
2022/08/12 09:37:32;;;;;;;;;;;;;;;31.24;42.93;100735.38;5019823;28;20048;-74
2022/08/12 09:39:58;;;;;;;3.55;1.88;;;;;;;31.04;42.57;100704.25;5036418;28;19909;-75
2022/08/12 09:45:21;;;;;;;3.72;1.95;;;;;;;31.72;40.77;100642.06;5038313;28;20349;-74
2022/08/12 09:47:47;;;;;;;5.13;2.28;;;;;;;32.03;40.44;100706.91;5023218;28;20090;-74
2022/08/12 09:50:15;;;;;;;2.75;2.05;;;;;;;32.35;39.46;100698.47;5029047;28;20426;-74
2022/08/12 09:52:42;;;;;;;5.20;2.03;;;;;;;32.10;40.68;100729.38;5030723;28;20407;-75
2022/08/12 09:55:10;;;;;;;5.97;2.30;;;;;;;32.58;39.57;100726.19;5022516;28;20104;-74
2022/08/12 09:57:36;;;;;;;5.47;1.77;;;;;;;32.54;39.23;100653.31;5037629;28;20864;-74
2022/08/12 10:00:04;;;;;;;8.85;2.30;;;;;;;32.76;38.61;100625.69;5037002;28;20036;-74
2022/08/12 10:02:38;;;;;;;3.20;1.80;;;;;;;32.15;38.89;100497.34;5037534;28;20037;-74
2022/08/12 10:05:05;;;;;;;2.55;2.05;;;;;;;32.49;39.30;100632.13;5019455;28;20033;-74
2022/08/12 10:07:30;;;;;;;2.45;1.63;;;;;;;32.80;38.22;100601.81;5040564;28;20013;-74
2022/08/12 10:09:56;;;;;;;;;;;;;;;32.16;38.32;100427.16;5040694;28;20052;-74
2022/08/12 10:15:06;;;;;;;5.13;2.10;;;;;;;33.16;37.04;100525.41;5040384;28;20029;-74
2022/08/12 10:17:31;;;;;;;;;;;;;;;33.24;36.03;100421.47;5031360;28;20031;-74
2022/08/12 10:19:56;;;;;;;2.83;1.85;;;;;;;33.34;35.86;100374.13;5040846;28;19912;-74
2022/08/12 10:22:22;;;;;;;;;;;;;;;33.55;35.47;100421.31;5039895;28;20033;-74
2022/08/12 10:29:35;;;;;;;2.97;1.80;;;;;;;32.97;36.31;100368.06;5034091;28;19928;-74
2022/08/12 10:30:19;;;;;;;4.20;2.28;;;;;;;32.91;35.04;100211.75;5047821;28;20439;-74
2022/08/12 10:32:57;;;;;;;3.45;1.90;;;;;;;33.19;34.78;100245.44;5048374;28;20623;-74
2022/08/12 10:35:31;;;;;;;5.40;2.40;;;;;;;32.15;35.08;100042.56;5030581;28;20036;-74
2022/08/12 10:38:01;;;;;;;7.07;2.00;;;;;;;32.91;35.38;100289.16;5048339;28;20056;-74
2022/08/12 10:40:28;;;;;;;2.95;1.67;;;;;;;32.98;35.02;100228.66;5048015;28;20040;-74
2022/08/12 10:45:37;;;;;;;7.20;2.20;;;;;;;34.29;32.99;100281.81;5040816;28;20024;-75
2022/08/12 10:48:04;;;;;;;;;;;;;;;33.91;33.56;100282.59;5048474;28;20394;-74
2022/08/12 10:50:30;;;;;;;3.53;1.60;;;;;;;34.30;33.19;100300.03;5042246;28;19919;-74
2022/08/12 10:52:55;;;;;;;7.95;1.88;;;;;;;34.33;32.98;100243.19;5047453;28;20016;-75
2022/08/12 10:55:21;;;;;;;3.75;1.55;;;;;;;34.00;32.89;100120.00;5028495;28;20040;-75
2022/08/12 10:57:46;;;;;;;3.40;2.08;;;;;;;33.38;33.42;100043.13;5038384;28;20024;-75
2022/08/12 11:00:13;;;;;;;7.38;1.90;;;;;;;32.68;33.24;99816.75;5037945;28;20762;-74
2022/08/12 11:02:49;;;;;;;5.78;2.20;;;;;;;32.22;34.45;99952.88;5017602;28;20074;-74
2022/08/12 11:05:16;;;;;;;7.43;1.75;;;;;;;32.98;32.46;99932.84;5045981;28;20531;-75
2022/08/12 11:07:41;;;;;;;6.03;1.80;;;;;;;34.01;31.38;100052.38;5030106;28;20029;-75
2022/08/12 11:10:07;;;;;;;;;;;;;;;33.74;31.24;99950.47;5029581;28;20040;-75
2022/08/12 11:12:34;;;;;;;;;;;;;;;31.72;32.92;99559.63;5040106;28;19973;-75
2022/08/12 11:15:00;;;;;;;5.07;1.80;;;;;;;32.23;33.92;99913.91;5021639;28;19913;-76
2022/08/12 11:17:25;;;;;;;;;;;;;;;32.57;33.35;99934.34;5036039;28;20386;-74
2022/08/12 11:19:50;;;;;;;5.37;2.03;;;;;;;32.27;33.97;99936.97;5035528;28;19920;-74
2022/08/12 11:22:16;;;;;;;;;;;;;;;31.89;33.21;99740.84;5046123;28;20629;-77
2022/08/12 11:24:41;;;;;;;7.27;2.40;;;;;;;31.49;33.25;99612.31;5021635;28;19919;-74
2022/08/12 11:27:07;;;;;;;;;;;;;;;32.92;33.08;100058.56;5039487;28;20637;-75
2022/08/12 11:29:33;;;;;;;9.10;1.90;;;;;;;32.68;31.94;99818.72;5038645;28;19916;-75
2022/08/12 11:31:59;;;;;;;3.25;1.73;;;;;;;32.50;32.08;99810.53;5039191;28;20024;-75
2022/08/12 11:34:24;;;;;;;;;;;;;;;33.08;31.17;99844.00;5029875;28;20097;-75
2022/08/12 11:36:59;;;;;;;;;;;;;;;33.53;31.17;99947.69;5021939;28;19930;-75
2022/08/12 11:39:26;;;;;;;6.20;2.08;;;;;;;34.09;30.62;99989.81;5043767;28;19913;-75
2022/08/12 11:41:51;;;;;;;4.18;1.52;;;;;;;31.98;31.68;99426.22;5017757;28;20109;-75
2022/08/12 11:44:17;;;;;;;;;;;;;;;33.32;31.26;99862.75;5037570;28;20034;-75
2022/08/12 11:46:43;;;;;;;6.85;2.03;;;;;;;33.28;30.66;99778.00;5038760;28;19917;-75
2022/08/12 11:49:08;;;;;;;;;;;;;;;32.13;31.54;99611.38;5038268;28;20104;-75
2022/08/12 11:51:34;;;;;;;2.28;1.60;;;;;;;32.66;31.14;99682.84;5035227;28;20036;-75
2022/08/12 11:54:00;;;;;;;5.57;2.00;;;;;;;33.41;29.50;99710.50;5035003;28;20037;-75
2022/08/12 11:56:25;;;;;;;;;;;;;;;32.53;30.31;99549.38;5046069;28;20035;-75
2022/08/12 11:58:51;;;;;;;;;;;;;;;33.22;30.26;99775.47;5046669;28;20377;-75
2022/08/12 12:01:16;;;;;;;;;;;;;;;33.25;30.03;99679.09;5046118;28;19908;-75
2022/08/12 12:03:42;;;;;;;7.88;1.92;;;;;;;34.30;28.90;99867.88;5045791;28;19913;-75
2022/08/12 12:06:07;;;;;;;4.07;1.60;;;;;;;33.18;28.69;99470.34;5018393;28;20040;-75
2022/08/12 12:08:33;;;;;;;5.78;2.17;;;;;;;32.34;30.39;99491.84;5041685;28;20398;-75
2022/08/12 12:10:58;;;;;;;;;;;;;;;32.72;30.12;99557.16;5041586;28;20470;-75
2022/08/12 12:13:24;;;;;;;4.38;1.80;;;;;;;33.47;30.15;99814.28;5035152;28;19943;-75
2022/08/12 12:15:49;;;;;;;;;;;;;;;32.53;30.01;99449.94;5017339;28;20099;-75
2022/08/12 12:18:18;;;;;;;;;;;;;;;31.89;30.15;99313.13;5036444;28;19917;-75
2022/08/12 12:20:43;;;;;;;3.10;1.85;;;;;;;32.47;28.99;99310.41;5037933;28;19908;-75
2022/08/12 12:23:09;;;;;;;;;;;;;;;31.78;29.91;99249.28;5037685;28;20128;-74
2022/08/12 12:25:34;;;;;;;4.47;1.80;;;;;;;32.58;29.65;99538.91;5019699;28;20802;-75
2022/08/12 12:27:59;;;;;;;;;;;;;;;33.64;29.49;99793.97;5019304;28;20039;-76
2022/08/12 12:30:25;;;;;;;;;;;;;;;33.53;28.50;99605.44;5025289;28;19974;-75
2022/08/12 12:32:50;;;;;;;;;;;;;;;32.86;29.34;99496.88;5035291;28;19917;-76
2022/08/12 12:35:15;;;;;;;;;;;;;;;32.89;28.86;99468.53;5035791;28;19965;-75
2022/08/12 12:37:54;;;;;;;;;;;;;;;31.71;30.22;99309.75;5038351;28;19967;-75
2022/08/12 12:40:19;;;;;;;;;;;;;;;31.98;29.72;99377.34;5045935;28;19924;-75
2022/08/12 12:42:44;;;;;;;;;;;;;;;32.68;28.94;99534.13;5046265;28;20037;-76
2022/08/12 12:45:10;;;;;;;;;;;;;;;33.09;29.18;99599.59;5045683;28;19966;-75
2022/08/12 12:47:36;;;;;;;;;;;;;;;32.08;28.04;99133.25;5038018;28;20430;-75
2022/08/12 12:50:01;;;;;;;;;;;;;;;32.34;28.01;99226.75;5038107;28;19913;-75
2022/08/12 12:52:26;;;;;;;;;;;;;;;33.34;27.55;99453.88;5020169;28;19998;-75
2022/08/12 12:54:57;;;;;;;;;;;;;;;32.69;27.70;99289.84;5020270;28;20007;-75
2022/08/12 12:57:23;;;;;;;;;;;;;;;32.05;27.88;99064.91;5017737;28;19913;-75
2022/08/12 13:00:13;;;;;;;;;;;;;;;33.84;28.00;99706.50;5034048;28;19915;-75
2022/08/12 13:02:39;;;;;;;;;;;;;;;33.72;27.35;99559.81;5008565;28;19917;-75
2022/08/12 13:05:05;;;;;;;;;;;;;;;34.04;27.01;99539.47;5034036;28;19913;-75
2022/08/12 13:07:30;;;;;;;;;;;;;;;33.77;27.09;99463.50;5046054;28;19982;-75
2022/08/12 13:09:55;;;;;;;;;;;;;;;34.19;26.65;99524.09;5037446;28;19941;-76
2022/08/12 13:12:20;;;;;;;;;;;;;;;34.13;26.94;99563.47;5035506;28;19935;-75
2022/08/12 13:14:46;;;;;;;;;;;;;;;33.08;27.52;99243.28;5016744;28;19992;-74
2022/08/12 13:17:11;;;;;;;;;;;;;;;33.16;28.18;99381.38;5034967;28;19909;-75
2022/08/12 13:19:37;;;;;;;;;;;;;;;33.52;27.41;99392.75;5045419;28;19916;-75
2022/08/12 13:22:17;;;;;;;;;;;;;;;33.96;27.05;99537.63;5019958;28;20337;-74
2022/08/12 13:24:43;;;;;;;;;;;;;;;31.77;27.43;98789.72;5006318;28;20004;-74